Terminal Aerodrome Forecast
Issued by NWS

Home | Current Version | Previous Version | Text Only | Print | Product List | Glossary On
Versions: 1 2 3 4 5 6 7 8 9 10 11 12 13 14 15 16
765
FTUS44 KEPZ 232341
TAFDMN
TAF
KDMN 232341Z 2400/2424 27010KT P6SM FEW140 SCT250
     FM240100 32018G28KT P6SM SCT070 SCT120 BKN200
      TEMPO 2403/2406 05020G32KT 6SM BLDU
     FM240900 04018G28KT P6SM FEW060 BKN080 BKN150
     FM241600 09012G22KT P6SM VCTS SCT050CB BKN080 BKN120
     FM242300 13012G22KT P6SM VCTS SCT060CB BKN080 BKN120=

USA.gov is the U.S. government's official web portal to all federal, state and local government web resources and services.